Time;durP1;ratioP1;P1;durP2;ratioP2;P2;SDS_P1;SDS_P2;PMS_P1;PMS_P2;Temp;Humidity;BMP_temperature;BMP_pressure;BME280_temperature;BME280_humidity;BME280_pressure;Samples;Min_cycle;Max_cycle;Signal;HPM_P1;HPM_P2
2021/09/16 00:00:38;;;;;;;5.65;5.15;;;24.30;70.00;;;;;;5126473;28;20028;-37
2021/09/16 00:03:04;;;;;;;5.93;5.32;;;24.20;70.00;;;;;;5126772;28;20026;-37
2021/09/16 00:05:30;;;;;;;5.43;5.03;;;24.20;70.10;;;;;;5108518;28;20058;-37
2021/09/16 00:07:56;;;;;;;6.30;5.70;;;24.20;70.30;;;;;;5108201;28;20061;-36
2021/09/16 00:10:22;;;;;;;5.80;5.30;;;24.20;70.30;;;;;;5126482;28;20421;-36
2021/09/16 00:12:48;;;;;;;5.40;5.00;;;24.30;70.40;;;;;;5126285;28;20031;-37
2021/09/16 00:15:15;;;;;;;6.53;5.63;;;24.20;70.20;;;;;;5126435;28;20028;-37
2021/09/16 00:17:41;;;;;;;6.30;5.75;;;24.20;70.40;;;;;;5126003;28;20023;-36
2021/09/16 00:20:08;;;;;;;5.88;5.38;;;24.20;70.40;;;;;;5126188;28;20022;-36
2021/09/16 00:22:34;;;;;;;6.30;5.78;;;24.20;70.40;;;;;;5126443;28;20077;-36
2021/09/16 00:25:01;;;;;;;6.45;5.88;;;24.20;70.40;;;;;;5126290;28;20039;-37
2021/09/16 00:27:27;;;;;;;5.82;5.32;;;24.30;70.40;;;;;;5126300;28;20652;-37
2021/09/16 00:29:53;;;;;;;6.03;5.53;;;24.20;70.30;;;;;;5126278;28;20020;-36
2021/09/16 00:32:19;;;;;;;5.78;5.28;;;24.20;70.40;;;;;;5126045;28;20035;-37
2021/09/16 00:34:45;;;;;;;5.97;5.38;;;24.30;70.50;;;;;;5125956;28;20070;-36
2021/09/16 00:37:11;;;;;;;6.15;5.55;;;24.20;70.40;;;;;;5126029;28;20023;-36
2021/09/16 00:39:38;;;;;;;5.57;5.00;;;24.20;70.40;;;;;;5125854;28;20027;-37
2021/09/16 00:42:04;;;;;;;6.00;5.50;;;24.20;70.40;;;;;;5126080;28;20026;-36
2021/09/16 00:44:30;;;;;;;5.53;5.03;;;24.20;70.50;;;;;;5125560;28;20352;-36
2021/09/16 00:46:56;;;;;;;5.63;5.13;;;24.20;70.60;;;;;;5107416;28;20095;-36
2021/09/16 00:49:22;;;;;;;5.95;5.45;;;24.20;71.50;;;;;;5125399;28;20052;-36
2021/09/16 00:51:48;;;;;;;6.45;5.85;;;24.20;70.70;;;;;;5125914;28;20100;-36
2021/09/16 00:54:15;;;;;;;6.50;5.90;;;24.20;70.70;;;;;;5125671;28;20023;-42
2021/09/16 00:56:41;;;;;;;6.18;5.68;;;24.20;70.80;;;;;;5107255;28;20027;-36
2021/09/16 00:59:08;;;;;;;6.13;5.53;;;24.20;70.70;;;;;;5090510;28;20484;-36
2021/09/16 01:01:34;;;;;;;5.78;5.25;;;24.20;70.80;;;;;;5125483;28;20024;-37
2021/09/16 01:04:00;;;;;;;6.18;5.63;;;24.20;70.80;;;;;;5125468;28;20028;-36
2021/09/16 01:06:27;;;;;;;6.00;5.50;;;24.20;70.90;;;;;;5125622;28;20080;-37
2021/09/16 01:08:53;;;;;;;5.68;5.18;;;24.10;70.70;;;;;;5107175;28;20437;-36
2021/09/16 01:11:20;;;;;;;6.10;5.60;;;24.20;70.70;;;;;;5125289;28;20062;-36
2021/09/16 01:13:46;;;;;;;6.07;5.47;;;24.10;70.60;;;;;;5125238;28;20028;-37
2021/09/16 01:16:13;;;;;;;5.78;5.15;;;24.10;70.60;;;;;;5125137;28;20038;-37
2021/09/16 01:18:39;;;;;;;5.93;5.40;;;24.10;70.50;;;;;;5125054;28;20047;-37
2021/09/16 01:21:06;;;;;;;5.90;5.40;;;24.10;70.40;;;;;;5125340;28;20039;-36
2021/09/16 01:23:32;;;;;;;5.50;5.00;;;24.10;70.40;;;;;;5124869;28;20551;-37
2021/09/16 01:25:58;;;;;;;5.85;5.25;;;24.10;70.40;;;;;;5125013;28;20042;-37
2021/09/16 01:28:24;;;;;;;5.95;5.45;;;24.10;70.40;;;;;;5124952;28;20091;-37
2021/09/16 01:30:51;;;;;;;5.88;5.38;;;24.10;70.30;;;;;;5124925;28;20109;-37
2021/09/16 01:33:17;;;;;;;5.75;5.25;;;24.10;70.30;;;;;;5124846;28;20039;-37
2021/09/16 01:35:43;;;;;;;6.25;5.65;;;24.10;70.30;;;;;;5125038;28;20026;-36
2021/09/16 01:38:09;;;;;;;6.00;5.50;;;24.10;70.40;;;;;;5124889;28;20035;-37
2021/09/16 01:40:35;;;;;;;6.20;5.60;;;24.10;70.40;;;;;;5124740;28;20114;-37
2021/09/16 01:43:02;;;;;;;5.90;5.40;;;24.10;70.40;;;;;;5123888;28;20252;-37
2021/09/16 01:45:28;;;;;;;6.37;5.77;;;24.10;70.40;;;;;;5124288;28;20027;-37
2021/09/16 01:47:55;;;;;;;6.30;5.70;;;24.10;70.40;;;;;;5124530;28;20056;-37
2021/09/16 01:50:22;;;;;;;6.00;5.50;;;24.10;70.50;;;;;;5086106;28;20340;-37
2021/09/16 01:52:51;;;;;;;6.07;5.57;;;24.10;70.50;;;;;;5104134;28;20338;-37
2021/09/16 01:55:17;;;;;;;6.40;5.82;;;24.10;70.50;;;;;;5104176;28;20048;-37
2021/09/16 01:57:43;;;;;;;5.90;5.40;;;24.10;70.50;;;;;;5104376;28;20550;-37
2021/09/16 02:00:10;;;;;;;5.90;5.30;;;24.10;70.40;;;;;;5103843;28;20062;-36
2021/09/16 02:02:36;;;;;;;5.90;5.40;;;24.10;70.40;;;;;;5085756;28;20036;-36
2021/09/16 02:05:02;;;;;;;5.90;5.38;;;24.10;70.40;;;;;;5104071;28;20054;-37
2021/09/16 02:07:29;;;;;;;5.90;5.30;;;24.10;70.40;;;;;;5103846;28;20055;-37
2021/09/16 02:09:55;;;;;;;6.45;5.85;;;24.10;70.40;;;;;;5103580;28;20024;-36
2021/09/16 02:12:21;;;;;;;6.07;5.57;;;24.10;70.30;;;;;;5103775;28;20714;-36
2021/09/16 02:14:47;;;;;;;6.65;6.05;;;24.00;70.40;;;;;;5106192;28;20091;-37
2021/09/16 02:17:13;;;;;;;5.82;5.32;;;24.00;70.30;;;;;;5124100;28;20028;-37
2021/09/16 02:19:39;;;;;;;5.68;5.18;;;24.10;70.30;;;;;;5109669;28;20031;-37
2021/09/16 02:22:05;;;;;;;5.97;5.47;;;24.00;70.30;;;;;;5103790;28;20032;-36
2021/09/16 02:24:32;;;;;;;6.07;5.47;;;24.00;70.30;;;;;;5103830;28;20048;-36
2021/09/16 02:26:58;;;;;;;5.97;5.47;;;24.00;70.30;;;;;;5103853;28;20111;-36
2021/09/16 02:29:24;;;;;;;5.53;5.03;;;24.00;70.40;;;;;;5085341;28;20035;-36
2021/09/16 02:31:50;;;;;;;6.07;5.57;;;24.00;70.30;;;;;;5103393;28;20047;-37
2021/09/16 02:34:16;;;;;;;6.28;5.68;;;24.00;70.30;;;;;;5103535;28;20465;-36
2021/09/16 02:36:42;;;;;;;5.80;5.30;;;24.00;70.40;;;;;;5103736;28;20028;-36
2021/09/16 02:39:09;;;;;;;6.50;5.63;;;24.00;70.30;;;;;;5103714;28;20101;-37
2021/09/16 02:41:35;;;;;;;5.55;5.05;;;24.00;70.30;;;;;;5103377;28;20016;-36
2021/09/16 02:44:01;;;;;;;5.90;5.32;;;24.00;70.30;;;;;;5109089;28;20116;-36
2021/09/16 02:46:27;;;;;;;5.90;5.40;;;24.00;70.30;;;;;;5123761;28;20027;-36
2021/09/16 02:48:53;;;;;;;5.75;5.25;;;24.00;70.80;;;;;;5123721;28;20099;-37
2021/09/16 02:51:20;;;;;;;6.00;5.45;;;24.00;70.40;;;;;;5123650;28;20055;-36
2021/09/16 02:53:46;;;;;;;6.53;5.93;;;24.00;70.30;;;;;;5123186;28;20040;-37
2021/09/16 02:56:12;;;;;;;5.85;5.25;;;24.00;70.30;;;;;;5123974;28;20028;-37
2021/09/16 02:58:38;;;;;;;5.85;5.35;;;24.00;70.40;;;;;;5124022;28;20047;-36
2021/09/16 03:01:04;;;;;;;5.70;5.20;;;24.00;70.40;;;;;;5123193;28;20024;-36
2021/09/16 03:03:30;;;;;;;6.03;5.50;;;24.00;70.40;;;;;;5123784;28;20032;-36
2021/09/16 03:05:57;;;;;;;5.50;5.00;;;24.00;70.50;;;;;;5123715;28;20039;-36
2021/09/16 03:08:23;;;;;;;5.95;5.35;;;24.00;70.50;;;;;;5123320;28;20028;-37
2021/09/16 03:10:49;;;;;;;5.93;5.43;;;24.00;70.60;;;;;;5123050;28;20016;-36
2021/09/16 03:13:15;;;;;;;5.63;5.13;;;24.00;70.50;;;;;;5123615;28;20042;-37
2021/09/16 03:15:41;;;;;;;5.95;5.45;;;24.00;70.50;;;;;;5123499;28;20024;-36
2021/09/16 03:18:07;;;;;;;5.88;5.38;;;23.90;70.50;;;;;;5123350;28;20035;-37
2021/09/16 03:20:33;;;;;;;6.20;5.70;;;24.00;70.50;;;;;;5124844;28;20023;-37
2021/09/16 03:23:00;;;;;;;5.82;5.22;;;24.00;70.60;;;;;;5127804;28;20051;-37
2021/09/16 03:25:26;;;;;;;5.88;5.28;;;23.90;70.60;;;;;;5127419;28;20036;-36
2021/09/16 03:27:52;;;;;;;6.05;5.45;;;23.90;70.50;;;;;;5127664;28;20031;-36
2021/09/16 03:30:18;;;;;;;6.05;5.53;;;23.90;70.60;;;;;;5127256;28;20031;-36
2021/09/16 03:32:44;;;;;;;5.50;5.00;;;23.90;70.60;;;;;;5127302;28;20091;-36
2021/09/16 03:35:11;;;;;;;5.82;5.32;;;23.90;70.50;;;;;;5127461;28;20058;-36
2021/09/16 03:37:37;;;;;;;5.70;5.20;;;23.90;70.60;;;;;;5126770;28;20023;-36
2021/09/16 03:40:04;;;;;;;5.38;4.97;;;23.90;70.60;;;;;;5127149;28;20046;-37
2021/09/16 03:42:32;;;;;;;7.60;5.35;;;23.90;70.60;;;;;;5127161;28;20016;-37
2021/09/16 03:44:59;;;;;;;5.70;5.20;;;23.90;70.60;;;;;;5126938;28;20032;-36
2021/09/16 03:47:25;;;;;;;5.68;5.18;;;23.90;70.60;;;;;;5127095;28;20030;-37
2021/09/16 03:49:51;;;;;;;5.38;4.88;;;23.90;70.60;;;;;;5126986;28;20090;-36
2021/09/16 03:52:17;;;;;;;6.15;5.65;;;23.90;70.70;;;;;;5108466;28;20039;-36
2021/09/16 03:54:44;;;;;;;5.55;5.05;;;23.90;70.60;;;;;;5126937;28;20030;-36
2021/09/16 03:57:10;;;;;;;5.82;5.32;;;23.90;70.70;;;;;;5127126;28;20028;-36
2021/09/16 03:59:36;;;;;;;5.40;4.90;;;23.90;70.70;;;;;;5126885;28;20083;-36
2021/09/16 04:02:02;;;;;;;5.25;4.78;;;23.90;70.70;;;;;;5126681;28;20032;-36
2021/09/16 04:04:28;;;;;;;4.90;4.50;;;23.90;70.70;;;;;;5126818;28;20038;-37
2021/09/16 04:06:55;;;;;;;5.63;5.13;;;23.90;70.70;;;;;;5126651;28;20024;-36
2021/09/16 04:09:21;;;;;;;6.13;5.10;;;23.80;70.70;;;;;;5126761;28;20052;-37
2021/09/16 04:11:47;;;;;;;5.47;4.97;;;23.90;70.80;;;;;;5126343;28;20819;-36
2021/09/16 04:14:13;;;;;;;5.90;5.30;;;23.90;70.70;;;;;;5126609;28;20023;-36
2021/09/16 04:16:40;;;;;;;5.65;5.15;;;23.90;70.70;;;;;;5126678;28;20069;-37
2021/09/16 04:19:06;;;;;;;5.00;4.60;;;23.80;70.80;;;;;;5126549;28;20051;-37
2021/09/16 04:21:33;;;;;;;5.50;5.00;;;23.80;70.70;;;;;;5126408;28;20027;-36
2021/09/16 04:23:59;;;;;;;5.00;4.60;;;23.90;70.80;;;;;;5126530;28;20023;-37
2021/09/16 04:26:25;;;;;;;5.05;4.65;;;23.90;70.90;;;;;;5126537;28;20466;-36
2021/09/16 04:28:51;;;;;;;5.40;4.90;;;23.90;70.80;;;;;;5126388;28;20034;-37
2021/09/16 04:31:17;;;;;;;5.25;4.85;;;23.80;70.70;;;;;;5125697;28;20053;-37
2021/09/16 04:33:44;;;;;;;5.05;4.65;;;23.90;70.80;;;;;;5126322;28;20122;-37
2021/09/16 04:36:10;;;;;;;5.28;4.78;;;23.90;70.90;;;;;;5126138;28;20023;-37
2021/09/16 04:38:36;;;;;;;4.78;4.38;;;23.80;70.90;;;;;;5126259;28;20035;-37
2021/09/16 04:41:02;;;;;;;4.95;4.55;;;23.80;71.60;;;;;;5125671;28;20028;-36
2021/09/16 04:43:28;;;;;;;5.05;4.65;;;23.90;70.90;;;;;;5126109;28;20123;-36
2021/09/16 04:45:54;;;;;;;5.05;4.63;;;23.90;70.90;;;;;;5126114;28;20111;-37
2021/09/16 04:48:21;;;;;;;5.18;4.78;;;23.80;70.90;;;;;;5125748;28;20050;-37
2021/09/16 04:50:47;;;;;;;4.43;4.03;;;23.80;70.90;;;;;;5125444;28;20023;-37
2021/09/16 04:53:13;;;;;;;5.13;4.55;;;23.80;71.70;;;;;;5125688;28;20035;-36
2021/09/16 04:55:41;;;;;;;4.80;4.40;;;23.80;71.00;;;;;;5125684;28;20050;-36
2021/09/16 04:58:07;;;;;;;4.95;4.55;;;23.80;71.00;;;;;;5125692;28;20027;-37
2021/09/16 05:00:33;;;;;;;5.05;4.65;;;23.80;71.00;;;;;;5125920;28;20093;-37
2021/09/16 05:02:59;;;;;;;5.05;4.65;;;23.80;71.00;;;;;;5125059;28;20569;-36
2021/09/16 05:05:25;;;;;;;4.75;4.20;;;23.80;71.00;;;;;;5104976;28;20028;-36
2021/09/16 05:07:52;;;;;;;4.80;4.40;;;23.80;71.00;;;;;;5105265;28;20024;-37
2021/09/16 05:10:18;;;;;;;4.53;4.13;;;23.80;71.00;;;;;;5121026;28;20031;-37
2021/09/16 05:12:44;;;;;;;4.97;4.57;;;23.80;71.00;;;;;;5125155;28;20046;-37
2021/09/16 05:15:10;;;;;;;4.97;3.90;;;23.80;71.00;;;;;;5125730;28;20023;-37
2021/09/16 05:17:37;;;;;;;6.03;4.25;;;23.80;71.00;;;;;;5125269;28;20042;-37
2021/09/16 05:20:04;;;;;;;6.85;4.50;;;23.80;71.10;;;;;;5125497;28;20035;-36
2021/09/16 05:22:30;;;;;;;4.55;4.15;;;23.80;71.00;;;;;;5125134;28;20031;-36
2021/09/16 05:24:56;;;;;;;4.35;3.95;;;23.80;71.10;;;;;;5124953;28;20039;-37
2021/09/16 05:27:22;;;;;;;4.78;4.38;;;23.80;71.20;;;;;;5125246;28;20028;-36
2021/09/16 05:29:48;;;;;;;4.50;4.10;;;23.80;71.10;;;;;;5125164;28;20020;-37
2021/09/16 05:32:15;;;;;;;4.37;4.00;;;23.80;71.10;;;;;;5124241;28;20039;-37
2021/09/16 05:34:41;;;;;;;4.20;3.85;;;23.70;71.00;;;;;;5125019;28;20027;-36
2021/09/16 05:37:07;;;;;;;4.70;4.28;;;23.70;71.10;;;;;;5124871;28;20023;-37
2021/09/16 05:39:33;;;;;;;4.17;3.77;;;23.70;71.10;;;;;;5125059;28;20030;-36
2021/09/16 05:42:00;;;;;;;4.03;3.73;;;23.70;71.10;;;;;;5124705;28;20559;-36
2021/09/16 05:44:26;;;;;;;4.30;3.90;;;23.70;71.10;;;;;;5124069;28;20032;-36
2021/09/16 05:46:52;;;;;;;5.30;3.92;;;23.70;71.20;;;;;;5124817;28;20028;-37
2021/09/16 05:49:18;;;;;;;3.53;3.22;;;23.70;71.20;;;;;;5124601;28;20083;-37
2021/09/16 05:51:44;;;;;;;4.53;4.13;;;23.70;71.20;;;;;;5124706;28;20059;-37
2021/09/16 05:54:11;;;;;;;4.60;4.20;;;23.70;71.20;;;;;;5124207;28;20027;-36
2021/09/16 05:56:37;;;;;;;3.78;3.47;;;23.70;71.20;;;;;;5124598;28;20032;-36
2021/09/16 05:59:03;;;;;;;3.80;3.50;;;23.70;71.30;;;;;;5119140;28;20036;-36
2021/09/16 06:01:30;;;;;;;4.10;3.70;;;23.70;71.20;;;;;;5109863;28;20031;-37
2021/09/16 06:03:57;;;;;;;4.30;3.90;;;23.70;71.20;;;;;;5103854;28;20034;-37
2021/09/16 06:06:23;;;;;;;4.20;3.90;;;23.70;71.20;;;;;;5104007;28;20473;-37
2021/09/16 06:08:49;;;;;;;3.90;3.60;;;23.70;71.20;;;;;;5107380;28;20275;-36
2021/09/16 06:11:15;;;;;;;3.88;3.58;;;23.70;71.30;;;;;;5124125;28;20051;-36
2021/09/16 06:13:41;;;;;;;4.43;3.33;;;23.70;71.40;;;;;;5124314;28;20027;-37
2021/09/16 06:16:08;;;;;;;4.05;3.70;;;23.70;71.30;;;;;;5124203;28;20024;-36
2021/09/16 06:18:34;;;;;;;3.80;3.50;;;23.70;71.30;;;;;;5124276;28;20015;-36
2021/09/16 06:21:00;;;;;;;4.43;4.03;;;23.70;71.40;;;;;;5124197;28;20027;-36
2021/09/16 06:23:26;;;;;;;3.70;3.40;;;23.70;71.30;;;;;;5123981;28;20028;-37
2021/09/16 06:25:52;;;;;;;3.90;3.60;;;23.70;71.30;;;;;;5123809;28;20019;-37
2021/09/16 06:28:19;;;;;;;3.58;3.28;;;23.70;71.40;;;;;;5124131;28;20165;-37
2021/09/16 06:30:45;;;;;;;3.67;3.38;;;23.70;71.40;;;;;;5124131;28;20737;-36
2021/09/16 06:33:14;;;;;;;3.47;3.17;;;23.70;71.40;;;;;;5123625;28;20099;-37
2021/09/16 06:35:41;;;;;;;3.53;3.22;;;23.70;71.50;;;;;;5123917;28;20030;-37
2021/09/16 06:38:07;;;;;;;3.78;3.47;;;23.70;71.50;;;;;;5124053;28;20031;-37
2021/09/16 06:40:33;;;;;;;3.65;3.35;;;23.70;71.50;;;;;;5123758;28;20051;-40
2021/09/16 06:43:00;;;;;;;3.72;3.40;;;23.70;71.40;;;;;;5123695;28;20028;-36
2021/09/16 06:45:26;;;;;;;2.95;2.75;;;23.60;71.40;;;;;;5123929;28;20028;-36
2021/09/16 06:47:52;;;;;;;3.92;3.50;;;23.60;71.40;;;;;;5123558;28;20031;-36
2021/09/16 06:50:18;;;;;;;3.33;3.03;;;23.60;71.40;;;;;;5123780;28;20027;-37
2021/09/16 06:52:45;;;;;;;4.00;3.60;;;23.60;71.50;;;;;;5123509;28;20066;-36
2021/09/16 06:55:11;;;;;;;3.70;3.40;;;23.60;71.40;;;;;;5127519;28;20019;-37
2021/09/16 06:57:37;;;;;;;3.60;3.30;;;23.60;71.50;;;;;;5130676;28;20023;-36
2021/09/16 07:00:04;;;;;;;4.00;3.60;;;23.60;71.50;;;;;;5130157;28;20024;-36
2021/09/16 07:02:31;;;;;;;3.30;3.00;;;23.60;71.50;;;;;;5128096;28;20027;-37
2021/09/16 07:04:57;;;;;;;3.50;3.20;;;23.60;71.50;;;;;;5130277;28;20028;-36
2021/09/16 07:07:23;;;;;;;3.50;3.20;;;23.60;71.50;;;;;;5130503;28;20024;-36
2021/09/16 07:09:50;;;;;;;5.47;2.95;;;23.60;71.50;;;;;;5130070;28;20019;-36
2021/09/16 07:12:16;;;;;;;3.47;3.17;;;23.60;71.50;;;;;;5130400;28;20039;-36
2021/09/16 07:14:43;;;;;;;3.47;3.17;;;23.60;71.60;;;;;;5130061;28;20176;-36
2021/09/16 07:17:09;;;;;;;3.40;3.10;;;23.60;71.50;;;;;;5130248;28;20056;-37
2021/09/16 07:19:36;;;;;;;3.47;3.00;;;23.60;71.60;;;;;;5130591;28;20805;-37
2021/09/16 07:22:02;;;;;;;3.30;3.00;;;23.60;71.70;;;;;;5130242;28;20487;-37
2021/09/16 07:24:28;;;;;;;3.10;2.90;;;23.60;72.30;;;;;;5111590;28;20027;-36
2021/09/16 07:26:55;;;;;;;3.60;3.30;;;23.60;71.60;;;;;;5130016;28;20047;-37
2021/09/16 07:29:21;;;;;;;3.38;3.08;;;23.60;71.60;;;;;;5130164;28;20024;-37
2021/09/16 07:31:48;;;;;;;3.05;2.85;;;23.60;71.60;;;;;;5129969;28;20042;-36
2021/09/16 07:34:16;;;;;;;3.35;3.05;;;23.60;71.60;;;;;;5129192;28;20027;-36
2021/09/16 07:36:43;;;;;;;;;;;23.60;71.50;;;;;;5130635;28;20528;-36
2021/09/16 07:39:14;;;;;;;2.92;2.72;;;23.60;71.70;;;;;;5130198;28;20268;-37
2021/09/16 07:41:40;;;;;;;4.05;2.80;;;23.60;71.70;;;;;;5129978;28;20024;-37
2021/09/16 07:44:07;;;;;;;3.17;2.87;;;23.60;71.80;;;;;;5130017;28;20027;-37
2021/09/16 07:46:33;;;;;;;3.35;3.00;;;23.60;71.70;;;;;;5130005;28;20027;-37
2021/09/16 07:48:59;;;;;;;2.93;2.70;;;23.50;71.60;;;;;;5129759;28;20050;-37
2021/09/16 07:51:25;;;;;;;3.97;3.00;;;23.60;71.70;;;;;;5130059;28;20027;-37
2021/09/16 07:53:52;;;;;;;2.60;2.40;;;23.60;71.80;;;;;;5129619;28;20031;-37
2021/09/16 07:56:19;;;;;;;2.53;2.33;;;23.60;71.80;;;;;;5129855;28;20034;-36
2021/09/16 07:58:46;;;;;;;2.95;2.70;;;23.50;71.80;;;;;;5129865;28;20027;-36
2021/09/16 08:01:12;;;;;;;2.85;2.63;;;23.50;71.80;;;;;;5129946;28;20028;-36
2021/09/16 08:03:39;;;;;;;3.38;2.28;;;23.50;71.70;;;;;;5129935;28;20559;-37
2021/09/16 08:06:05;;;;;;;2.73;2.53;;;23.50;71.80;;;;;;5127785;28;20024;-37
2021/09/16 08:08:31;;;;;;;3.10;2.80;;;23.50;71.80;;;;;;5126518;28;20058;-36
2021/09/16 08:10:58;;;;;;;2.90;2.70;;;23.50;71.70;;;;;;5126320;28;20081;-37
2021/09/16 08:13:24;;;;;;;3.30;2.67;;;23.50;71.80;;;;;;5126451;28;20568;-37
2021/09/16 08:15:51;;;;;;;2.70;2.50;;;23.50;71.70;;;;;;5126281;28;20256;-37
2021/09/16 08:18:18;;;;;;;2.53;2.33;;;23.50;71.80;;;;;;5126430;28;20071;-36
2021/09/16 08:20:48;;;;;;;2.97;2.78;;;23.50;71.80;;;;;;5126716;28;20015;-37
2021/09/16 08:23:17;;;;;;;2.60;2.40;;;23.50;71.70;;;;;;5126355;28;20020;-36
2021/09/16 08:25:44;;;;;;;2.53;2.33;;;23.50;71.80;;;;;;5125440;28;20023;-37
2021/09/16 08:28:10;;;;;;;2.60;2.40;;;23.50;71.90;;;;;;5126411;28;20024;-37
2021/09/16 08:30:36;;;;;;;2.70;2.50;;;23.50;71.80;;;;;;5126213;28;20263;-37
2021/09/16 08:33:03;;;;;;;2.50;2.30;;;23.50;71.80;;;;;;5126143;28;20042;-39
2021/09/16 08:35:29;;;;;;;2.80;2.60;;;23.50;72.60;;;;;;5126125;28;20023;-37
2021/09/16 08:37:55;;;;;;;2.80;2.30;;;23.50;71.90;;;;;;5126091;28;20035;-36
2021/09/16 08:40:22;;;;;;;2.88;2.67;;;23.50;71.90;;;;;;5125746;28;20032;-41
2021/09/16 08:42:49;;;;;;;3.00;2.80;;;23.50;71.90;;;;;;5126078;28;20046;-37
2021/09/16 08:45:16;;;;;;;2.50;2.30;;;23.50;71.90;;;;;;5125691;28;20032;-37
2021/09/16 08:47:43;;;;;;;2.58;2.38;;;23.50;71.90;;;;;;5125950;28;20032;-36
2021/09/16 08:50:10;;;;;;;2.67;2.47;;;23.50;71.90;;;;;;5107261;28;20044;-37
2021/09/16 08:52:39;;;;;;;2.70;2.50;;;23.50;71.90;;;;;;5125683;28;20036;-37
2021/09/16 08:55:06;;;;;;;3.03;2.70;;;23.50;71.90;;;;;;5124602;28;20045;-37
2021/09/16 08:57:36;;;;;;;3.72;2.40;;;23.50;71.90;;;;;;5125752;28;20031;-37
2021/09/16 09:00:06;;;;;;;2.55;2.30;;;23.50;71.90;;;;;;5125806;28;20027;-36
2021/09/16 09:02:32;;;;;;;2.50;2.30;;;23.40;71.80;;;;;;5125436;28;20117;-36
2021/09/16 09:04:58;;;;;;;2.83;2.53;;;23.50;71.90;;;;;;5125279;28;20563;-37
2021/09/16 09:07:24;;;;;;;2.90;2.55;;;23.50;71.90;;;;;;5125150;28;20091;-36
2021/09/16 09:09:51;;;;;;;2.27;2.07;;;23.50;71.90;;;;;;5090030;28;20038;-36
2021/09/16 09:12:17;;;;;;;2.20;2.00;;;23.40;71.90;;;;;;5125449;28;20039;-37
2021/09/16 09:14:47;;;;;;;2.55;2.35;;;23.40;71.90;;;;;;5125318;28;20053;-36
2021/09/16 09:17:21;;;;;;;2.38;2.17;;;23.40;72.00;;;;;;5124596;28;20092;-36
2021/09/16 09:19:48;;;;;;;2.20;2.00;;;23.40;71.90;;;;;;5124794;28;20045;-36
2021/09/16 09:22:15;;;;;;;2.13;2.00;;;23.40;72.00;;;;;;5106948;28;20031;-36
2021/09/16 09:24:43;;;;;;;2.67;2.47;;;23.40;72.00;;;;;;5125020;28;20187;-37
2021/09/16 09:27:26;;;;;;;2.47;2.28;;;23.40;72.00;;;;;;5124629;28;20042;-36
2021/09/16 09:30:08;;;;;;;2.42;2.22;;;23.40;72.00;;;;;;5125005;28;20031;-36
2021/09/16 09:32:51;;;;;;;3.10;2.25;;;23.40;71.90;;;;;;5124331;28;20023;-36
2021/09/16 09:35:39;;;;;;;2.30;2.10;;;23.40;72.00;;;;;;5124723;28;20024;-36
2021/09/16 09:38:20;;;;;;;2.10;1.98;;;23.40;71.90;;;;;;5124842;28;20076;-37
2021/09/16 09:40:51;;;;;;;2.30;2.08;;;23.40;72.00;;;;;;5124586;28;20031;-36
2021/09/16 09:43:18;;;;;;;2.30;2.10;;;23.40;71.90;;;;;;5106251;28;20024;-36
2021/09/16 09:45:57;;;;;;;1.85;1.75;;;23.40;72.00;;;;;;5124397;28;20035;-37
2021/09/16 09:48:23;;;;;;;2.22;1.95;;;23.40;71.90;;;;;;5124215;28;20043;-37
2021/09/16 09:50:53;;;;;;;2.38;2.17;;;23.40;72.00;;;;;;5124355;28;20057;-36
2021/09/16 09:53:19;;;;;;;2.00;1.90;;;23.40;72.00;;;;;;5124409;28;20084;-36
2021/09/16 09:55:45;;;;;;;1.88;1.77;;;23.40;72.10;;;;;;5124160;28;20567;-36
2021/09/16 09:58:11;;;;;;;2.08;1.88;;;23.40;72.10;;;;;;5124620;28;20027;-37
2021/09/16 10:00:38;;;;;;;2.07;1.93;;;23.40;72.00;;;;;;5124412;28;20028;-36
2021/09/16 10:03:04;;;;;;;2.17;1.92;;;23.40;72.10;;;;;;5124251;28;20034;-36
2021/09/16 10:05:32;;;;;;;1.70;1.60;;;23.40;72.10;;;;;;5124053;28;20847;-36
2021/09/16 10:08:18;;;;;;;2.10;2.00;;;23.40;72.10;;;;;;5124275;28;20047;-36
2021/09/16 10:10:48;;;;;;;2.08;1.88;;;23.40;72.10;;;;;;5124136;28;20045;-36
2021/09/16 10:13:18;;;;;;;2.00;1.90;;;23.40;72.10;;;;;;5124067;28;20742;-36
2021/09/16 10:15:48;;;;;;;2.33;2.13;;;23.30;72.00;;;;;;5123632;28;20031;-36
2021/09/16 10:18:14;;;;;;;1.52;1.42;;;23.40;72.10;;;;;;5123946;28;20047;-36
2021/09/16 10:20:40;;;;;;;2.13;1.92;;;23.30;72.10;;;;;;5105561;28;20128;-37
2021/09/16 10:23:07;;;;;;;2.28;1.98;;;23.30;72.10;;;;;;5124113;28;20077;-36
2021/09/16 10:25:33;;;;;;;1.83;1.73;;;23.30;72.00;;;;;;5105508;28;20053;-37
2021/09/16 10:28:00;;;;;;;2.73;1.90;;;23.30;72.10;;;;;;5123646;28;20062;-37
2021/09/16 10:30:26;;;;;;;2.25;2.10;;;23.30;72.00;;;;;;5123513;28;20367;-36
2021/09/16 10:33:00;;;;;;;2.15;1.80;;;23.30;72.00;;;;;;5123678;28;20035;-36
2021/09/16 10:35:26;;;;;;;1.98;1.88;;;23.30;72.10;;;;;;5123853;28;20187;-36
2021/09/16 10:37:52;;;;;;;2.80;2.60;;;23.30;72.10;;;;;;5123588;28;20031;-36
2021/09/16 10:40:23;;;;;;;1.80;1.70;;;23.30;72.10;;;;;;5105529;28;20023;-37
2021/09/16 10:42:51;;;;;;;2.10;1.90;;;23.30;72.10;;;;;;5123684;28;20027;-36
2021/09/16 10:45:30;;;;;;;1.90;1.80;;;23.30;72.20;;;;;;5123550;28;20030;-36
2021/09/16 10:48:14;;;;;;;1.90;1.73;;;23.30;72.20;;;;;;5123289;28;20063;-37
2021/09/16 10:50:50;;;;;;;1.75;1.63;;;23.30;72.10;;;;;;5102930;28;20036;-37
2021/09/16 10:53:36;;;;;;;1.90;1.80;;;23.30;72.20;;;;;;5103245;28;20032;-36
2021/09/16 10:56:04;;;;;;;1.90;1.80;;;23.30;72.20;;;;;;5103058;28;20024;-37
2021/09/16 10:58:30;;;;;;;1.90;1.80;;;23.30;72.20;;;;;;5103004;28;20024;-36
2021/09/16 11:00:56;;;;;;;1.80;1.70;;;23.30;72.30;;;;;;5120450;28;20081;-36
2021/09/16 11:03:22;;;;;;;1.87;1.77;;;23.30;72.20;;;;;;5104683;28;20031;-36
2021/09/16 11:05:53;;;;;;;1.77;1.67;;;23.30;72.10;;;;;;5123497;28;20034;-36
2021/09/16 11:08:20;;;;;;;2.00;1.60;;;23.30;72.10;;;;;;5123169;28;20031;-37
2021/09/16 11:10:48;;;;;;;1.60;1.33;;;23.30;72.10;;;;;;5123373;28;20076;-36
2021/09/16 11:13:38;;;;;;;2.10;1.90;;;23.30;72.10;;;;;;5123359;28;20036;-36
2021/09/16 11:16:04;;;;;;;1.52;1.42;;;23.30;72.10;;;;;;5123492;28;20015;-36
2021/09/16 11:18:32;;;;;;;1.42;1.33;;;23.30;72.20;;;;;;5122971;28;20028;-36
2021/09/16 11:21:02;;;;;;;1.60;1.50;;;23.30;72.10;;;;;;5123270;28;20035;-37
2021/09/16 11:23:37;;;;;;;2.70;1.77;;;23.30;72.20;;;;;;5123264;28;20031;-37
2021/09/16 11:26:04;;;;;;;1.67;1.58;;;23.30;72.30;;;;;;5104889;28;20451;-36
2021/09/16 11:28:30;;;;;;;1.77;1.67;;;23.30;72.30;;;;;;5104749;28;20793;-36
2021/09/16 11:30:56;;;;;;;1.90;1.80;;;23.30;72.20;;;;;;5123395;28;20256;-37
2021/09/16 11:33:22;;;;;;;1.60;1.50;;;23.20;72.20;;;;;;5123245;28;20031;-36
2021/09/16 11:35:49;;;;;;;1.80;1.70;;;23.30;72.20;;;;;;5123220;28;20024;-36
2021/09/16 11:38:16;;;;;;;2.15;1.95;;;23.30;72.30;;;;;;5123263;28;20263;-36
2021/09/16 11:40:46;;;;;;;1.52;1.40;;;23.30;72.30;;;;;;5122800;28;20403;-36
2021/09/16 11:43:15;;;;;;;1.45;1.35;;;23.30;72.30;;;;;;5126667;28;20049;-36
2021/09/16 11:45:45;;;;;;;1.52;1.42;;;23.30;72.20;;;;;;5127136;28;20028;-36
2021/09/16 11:48:16;;;;;;;1.70;1.60;;;23.30;72.30;;;;;;5126328;28;20051;-36
2021/09/16 11:50:50;;;;;;;1.90;1.75;;;23.30;72.30;;;;;;5126866;28;20107;-37
2021/09/16 11:53:24;;;;;;;1.60;1.48;;;23.30;72.30;;;;;;5126672;28;20118;-36
2021/09/16 11:55:52;;;;;;;1.58;1.48;;;23.20;72.20;;;;;;5126624;28;20051;-36
2021/09/16 11:58:22;;;;;;;1.48;1.38;;;23.20;72.10;;;;;;5126521;28;20759;-37
2021/09/16 12:00:52;;;;;;;1.55;1.45;;;23.20;72.20;;;;;;5126837;28;20306;-36
2021/09/16 12:03:29;;;;;;;1.77;1.50;;;23.20;72.20;;;;;;5126509;28;20023;-37
2021/09/16 12:06:00;;;;;;;1.48;1.38;;;23.20;72.20;;;;;;5126840;28;20055;-37
2021/09/16 12:08:28;;;;;;;1.60;1.50;;;23.20;72.20;;;;;;5107767;28;20039;-36
2021/09/16 12:11:04;;;;;;;1.70;1.60;;;23.20;72.20;;;;;;5106012;28;20024;-37
2021/09/16 12:13:33;;;;;;;1.48;1.38;;;23.20;72.30;;;;;;5105894;28;20186;-36
2021/09/16 12:16:05;;;;;;;1.50;1.40;;;23.20;72.30;;;;;;5105901;28;20058;-36
2021/09/16 12:18:34;;;;;;;1.40;1.30;;;23.20;72.30;;;;;;5110776;28;20027;-36
2021/09/16 12:21:01;;;;;;;1.30;1.20;;;23.20;72.30;;;;;;5126401;28;20088;-37
2021/09/16 12:23:27;;;;;;;1.30;1.20;;;23.20;72.30;;;;;;5108455;28;20034;-36
2021/09/16 12:25:59;;;;;;;1.35;1.25;;;23.20;72.30;;;;;;5126015;28;20076;-36
2021/09/16 12:28:26;;;;;;;1.35;1.25;;;23.20;72.30;;;;;;5126012;28;20039;-37
2021/09/16 12:30:52;;;;;;;1.40;1.30;;;23.20;72.20;;;;;;5126353;28;20396;-37
2021/09/16 12:33:34;;;;;;;1.63;1.30;;;23.20;72.30;;;;;;5126112;28;20071;-36
2021/09/16 12:36:11;;;;;;;1.38;1.27;;;23.20;72.30;;;;;;5126003;28;20032;-36
2021/09/16 12:38:39;;;;;;;1.30;1.20;;;23.20;72.40;;;;;;5125843;28;20388;-36
2021/09/16 12:41:33;;;;;;;1.30;1.20;;;23.20;72.30;;;;;;5125744;28;20024;-36
2021/09/16 12:44:06;;;;;;;1.20;1.10;;;23.20;72.40;;;;;;5125887;28;20495;-36
2021/09/16 12:46:40;;;;;;;1.80;1.30;;;23.20;72.30;;;;;;5125527;28;20083;-36
2021/09/16 12:49:06;;;;;;;1.40;1.30;;;23.20;72.40;;;;;;5107216;28;20094;-37